Terminal Aerodrome Forecast
Issued by NWS Twin Cities, MN

Home | Current Version | Previous Version | Text Only | Print | Product List | Glossary On
Versions: 1 2 3 4 5 6 7 8 9 10 11 12 13 14 15 16 17 18 19 20 21 22 23 24 25 26 27 28
000
FTUS43 KMPX 170305 AAB
TAFMSP
TAF AMD
KMSP 170305Z 1703/1806 10014KT 5SM SHRA BR BKN015 OVC040
     FM170600 13008KT 2SM -SHRA BR OVC005
     FM171000 22007KT 3SM BR VCSH OVC005
     FM171400 30012G20KT P6SM VCSH OVC008
     FM171900 30017G25KT P6SM BKN015=

USA.gov is the U.S. government's official web portal to all federal, state and local government web resources and services.